createdAt,value
2019-06-10T00:01:48.086Z,5.40
2019-06-10T00:04:18.241Z,6.40
2019-06-10T00:06:48.346Z,4.20
2019-06-10T00:09:20.922Z,5.20
2019-06-10T00:11:51.478Z,7.00
2019-06-10T00:14:22.692Z,6.80
2019-06-10T00:16:52.997Z,8.60
2019-06-10T00:19:23.040Z,7.20
2019-06-10T00:21:53.089Z,7.40
2019-06-10T00:24:23.166Z,6.60
2019-06-10T00:26:53.247Z,5.60
2019-06-10T00:29:23.277Z,8.20
2019-06-10T00:31:53.372Z,4.00
2019-06-10T00:34:23.410Z,7.00
2019-06-10T00:36:53.527Z,6.80
2019-06-10T00:39:23.556Z,7.00
2019-06-10T00:41:53.650Z,7.20
2019-06-10T00:44:23.690Z,7.60
2019-06-10T00:46:53.792Z,6.20
2019-06-10T00:49:23.802Z,6.60
2019-06-10T00:51:54.420Z,7.00
2019-06-10T00:54:24.521Z,6.40
2019-06-10T00:56:55.691Z,5.20
2019-06-10T00:59:25.711Z,4.20
2019-06-10T01:01:55.822Z,7.00
2019-06-10T01:04:25.847Z,7.60
2019-06-10T01:06:55.964Z,4.80
2019-06-10T01:09:27.079Z,7.60
2019-06-10T01:11:57.137Z,5.20
2019-06-10T01:14:27.190Z,5.40
2019-06-10T01:16:57.328Z,6.00
2019-06-10T01:19:27.351Z,6.00
2019-06-10T01:21:57.437Z,5.80
2019-06-10T01:24:27.489Z,6.40
2019-06-10T01:26:57.563Z,6.80
2019-06-10T01:29:27.602Z,6.00
2019-06-10T01:31:57.696Z,6.80
2019-06-10T01:34:27.717Z,6.40
2019-06-10T01:36:57.822Z,5.60
2019-06-10T01:39:27.873Z,9.60
2019-06-10T01:41:57.988Z,7.20
2019-06-10T01:44:28.050Z,7.00
2019-06-10T01:47:00.843Z,5.80
2019-06-10T01:49:30.818Z,6.40
2019-06-10T01:52:01.627Z,6.00
2019-06-10T01:54:31.970Z,6.20
2019-06-10T01:57:02.044Z,7.00
2019-06-10T01:59:32.073Z,6.80
2019-06-10T02:02:06.514Z,5.80
2019-06-10T02:04:36.552Z,5.00
2019-06-10T02:07:06.623Z,7.00
2019-06-10T02:09:36.671Z,7.60
2019-06-10T02:12:06.782Z,6.00
2019-06-10T02:14:36.869Z,5.20
2019-06-10T02:17:07.268Z,6.00
2019-06-10T02:19:37.314Z,8.20
2019-06-10T02:22:07.653Z,6.80
2019-06-10T02:24:37.809Z,6.20
2019-06-10T02:27:08.099Z,3.00
2019-06-10T02:29:38.266Z,5.60
2019-06-10T02:32:12.437Z,7.60
2019-06-10T02:34:59.933Z,6.00
2019-06-10T02:37:19.138Z,6.80
2019-06-10T02:39:45.367Z,6.80
2019-06-10T02:42:28.596Z,6.40
2019-06-10T02:44:54.079Z,7.80
2019-06-10T02:47:31.331Z,6.40
2019-06-10T02:50:02.023Z,6.40
2019-06-10T02:52:33.020Z,5.60
2019-06-10T02:54:58.997Z,6.80
2019-06-10T02:57:35.369Z,7.00
2019-06-10T03:00:06.490Z,5.20
2019-06-10T03:02:36.339Z,7.20
2019-06-10T03:05:06.901Z,6.20
2019-06-10T03:07:37.056Z,3.20
2019-06-10T03:10:07.530Z,6.40
2019-06-10T03:12:37.614Z,5.40
2019-06-10T03:15:08.748Z,7.00
2019-06-10T03:17:38.832Z,7.20
2019-06-10T03:20:08.875Z,5.00
2019-06-10T03:22:39.014Z,6.60
2019-06-10T03:25:09.237Z,5.40
2019-06-10T03:27:39.287Z,8.00
2019-06-10T03:30:19.686Z,7.00
2019-06-10T03:32:46.928Z,8.00
2019-06-10T03:35:13.884Z,6.60
2019-06-10T03:37:44.077Z,6.20
2019-06-10T03:40:14.451Z,5.20
2019-06-10T03:42:44.658Z,6.00
2019-06-10T03:45:14.809Z,5.80
2019-06-10T03:47:44.899Z,6.40
2019-06-10T03:50:14.974Z,5.40
2019-06-10T03:52:45.151Z,7.20
2019-06-10T03:55:15.402Z,5.00
2019-06-10T03:57:45.498Z,7.40
2019-06-10T04:00:17.347Z,7.20
2019-06-10T04:02:47.651Z,7.00
2019-06-10T04:05:17.713Z,6.20
2019-06-10T04:07:47.807Z,8.00
2019-06-10T04:10:17.844Z,7.40
2019-06-10T04:12:48.039Z,9.40
2019-06-10T04:15:18.155Z,8.80
2019-06-10T04:17:48.274Z,7.00
2019-06-10T04:20:19.667Z,5.80
2019-06-10T04:22:52.180Z,6.00
2019-06-10T04:25:24.643Z,7.00
2019-06-10T04:27:53.953Z,5.00
2019-06-10T04:30:26.069Z,6.80
2019-06-10T04:32:55.772Z,5.80
2019-06-10T04:35:26.491Z,5.60
2019-06-10T04:37:57.567Z,5.00
2019-06-10T04:40:28.134Z,5.40
2019-06-10T04:42:59.388Z,4.00
2019-06-10T04:45:29.464Z,2.80
2019-06-10T04:47:59.575Z,4.80
2019-06-10T04:50:37.221Z,3.00
2019-06-10T04:53:02.281Z,5.80
2019-06-10T04:55:32.746Z,4.00
2019-06-10T04:58:02.894Z,6.00
2019-06-10T05:00:33.241Z,3.60
2019-06-10T05:03:03.561Z,3.40
2019-06-10T05:05:33.690Z,4.20
2019-06-10T05:08:03.822Z,3.80
2019-06-10T05:10:33.887Z,4.20
2019-06-10T05:13:03.986Z,3.20
2019-06-10T05:15:35.038Z,3.40
2019-06-10T05:18:05.703Z,3.60
2019-06-10T05:20:50.790Z,2.40
2019-06-10T05:23:07.569Z,0.00
2019-06-10T05:25:37.627Z,3.00
2019-06-10T05:28:07.811Z,3.00
2019-06-10T05:30:37.884Z,2.20
2019-06-10T05:33:09.386Z,2.00
2019-06-10T05:35:39.459Z,2.00
2019-06-10T05:38:09.580Z,2.40
2019-06-10T05:40:39.619Z,2.00
2019-06-10T05:43:09.756Z,1.40
2019-06-10T05:45:39.809Z,1.20
2019-06-10T05:48:10.047Z,1.40
2019-06-10T05:50:42.654Z,2.00
2019-06-10T05:53:13.112Z,1.60
2019-06-10T05:55:43.314Z,2.20
2019-06-10T05:58:13.436Z,1.60
2019-06-10T06:00:43.651Z,1.80
2019-06-10T06:03:13.781Z,0.80
2019-06-10T06:05:43.860Z,0.00
2019-06-10T06:08:13.956Z,0.80
2019-06-10T06:10:43.999Z,1.40
2019-06-10T06:13:14.166Z,1.00
2019-06-10T06:15:44.270Z,0.20
2019-06-10T06:18:14.390Z,1.60
2019-06-10T06:20:44.562Z,0.20
2019-06-10T06:23:14.973Z,1.20
2019-06-10T06:25:47.043Z,0.00
2019-06-10T06:28:16.871Z,0.00
2019-06-10T06:30:46.970Z,0.60
2019-06-10T06:33:17.076Z,1.00
2019-06-10T06:35:47.128Z,2.00
2019-06-10T06:38:17.202Z,1.00
2019-06-10T06:40:47.273Z,1.80
2019-06-10T06:43:17.454Z,1.00
2019-06-10T06:45:47.518Z,2.80
2019-06-10T06:48:17.891Z,2.80
2019-06-10T06:51:01.757Z,1.20
2019-06-10T06:53:29.964Z,1.00
2019-06-10T06:55:55.436Z,2.00
2019-06-10T06:58:23.841Z,0.00
2019-06-10T07:01:05.277Z,2.20
2019-06-10T07:03:25.653Z,2.00
2019-06-10T07:05:55.989Z,2.20
2019-06-10T07:08:28.193Z,1.80
2019-06-10T07:11:02.832Z,2.00
2019-06-10T07:13:37.140Z,2.60
2019-06-10T07:16:06.106Z,1.20
2019-06-10T07:18:42.698Z,2.00
2019-06-10T07:21:08.322Z,1.80
2019-06-10T07:23:41.107Z,0.80
2019-06-10T07:26:12.588Z,2.00
2019-06-10T07:28:45.721Z,3.20
2019-06-10T07:31:23.267Z,2.60
2019-06-10T07:33:47.448Z,4.80
2019-06-10T07:36:17.679Z,2.80
2019-06-10T07:38:49.146Z,0.40
2019-06-10T07:41:19.385Z,1.00
2019-06-10T07:43:52.687Z,1.80
2019-06-10T07:46:23.107Z,1.00
2019-06-10T07:48:56.504Z,2.60
2019-06-10T07:51:25.175Z,2.00
2019-06-10T07:53:55.379Z,3.00
2019-06-10T07:56:28.960Z,1.00
2019-06-10T07:58:57.439Z,1.60
2019-06-10T08:01:27.583Z,1.00
2019-06-10T08:03:57.730Z,0.40
2019-06-10T08:06:27.824Z,0.00
2019-06-10T08:08:58.206Z,1.60
2019-06-10T08:11:28.339Z,1.20
2019-06-10T08:13:58.462Z,1.00
2019-06-10T08:16:28.564Z,1.80
2019-06-10T08:19:22.027Z,9.40
2019-06-10T08:21:32.321Z,0.60
2019-06-10T08:24:03.686Z,4.00
2019-06-10T08:26:33.778Z,1.60
2019-06-10T08:29:04.394Z,13.00
2019-06-10T08:31:34.806Z,6.00
2019-06-10T08:34:04.923Z,2.20
2019-06-10T08:36:36.303Z,0.00
2019-06-10T08:39:07.679Z,5.40
2019-06-10T08:41:38.448Z,1.00
2019-06-10T08:44:08.794Z,2.40
2019-06-10T08:46:38.874Z,1.00
2019-06-10T08:49:09.007Z,1.00
2019-06-10T08:51:39.693Z,2.00
2019-06-10T08:54:09.943Z,3.80
2019-06-10T08:56:40.150Z,2.00
2019-06-10T08:59:12.432Z,2.80
2019-06-10T09:03:38.995Z,2.20
2019-06-10T09:06:09.635Z,3.00
2019-06-10T09:08:41.923Z,2.00
2019-06-10T09:11:15.507Z,2.00
2019-06-10T09:13:48.018Z,1.20
2019-06-10T09:16:19.504Z,2.20
2019-06-10T09:18:51.155Z,1.40
2019-06-10T09:21:22.325Z,2.60
2019-06-10T09:23:59.430Z,2.00
2019-06-10T09:26:24.260Z,1.00
2019-06-10T09:28:56.600Z,1.60
2019-06-10T09:31:26.314Z,1.40
2019-06-10T09:33:58.109Z,1.00
2019-06-10T09:36:28.218Z,1.00
2019-06-10T09:38:58.264Z,3.00
2019-06-10T09:41:39.485Z,2.00
2019-06-10T09:44:00.320Z,1.80
2019-06-10T09:46:33.259Z,2.00
2019-06-10T09:49:05.277Z,1.60
2019-06-10T09:51:35.560Z,2.00
2019-06-10T09:54:06.715Z,2.00
2019-06-10T09:56:37.243Z,1.80
2019-06-10T09:59:12.402Z,2.60
2019-06-10T10:01:47.035Z,2.00
2019-06-10T10:04:13.771Z,15.00
2019-06-10T10:06:47.772Z,2.00
2019-06-10T10:09:16.294Z,2.00
2019-06-10T10:11:48.581Z,2.00
2019-06-10T10:14:18.040Z,1.00
2019-06-10T10:16:53.801Z,2.00
2019-06-10T10:19:19.799Z,2.20
2019-06-10T10:21:55.768Z,2.00
2019-06-10T10:24:23.055Z,1.00
2019-06-10T10:26:57.546Z,1.80
2019-06-10T10:29:25.046Z,2.20
2019-06-10T10:31:55.129Z,1.60
2019-06-10T10:34:25.232Z,2.80
2019-06-10T10:36:57.233Z,1.80
2019-06-10T10:39:27.082Z,2.00
2019-06-10T10:41:57.443Z,2.20
2019-06-10T10:44:27.653Z,2.00
2019-06-10T10:46:57.752Z,1.80
2019-06-10T10:49:27.799Z,1.80
2019-06-10T10:51:57.881Z,2.40
2019-06-10T10:54:33.959Z,29.20
2019-06-10T10:56:59.643Z,3.00
2019-06-10T10:59:29.663Z,2.40
2019-06-10T11:02:02.187Z,2.20
2019-06-10T11:04:32.860Z,2.00
2019-06-10T11:07:03.178Z,2.60
2019-06-10T11:09:33.307Z,2.80
2019-06-10T11:12:06.454Z,2.00
2019-06-10T11:14:37.209Z,2.00
2019-06-10T11:17:07.321Z,2.80
2019-06-10T11:19:37.362Z,2.00
2019-06-10T11:22:07.449Z,2.60
2019-06-10T11:24:41.042Z,1.80
2019-06-10T11:27:09.234Z,20.40
2019-06-10T11:29:39.292Z,2.00
2019-06-10T11:32:09.415Z,3.00
2019-06-10T11:34:39.580Z,2.80
2019-06-10T11:37:09.696Z,2.20
2019-06-10T11:39:39.765Z,1.00
2019-06-10T11:42:10.056Z,2.00
2019-06-10T11:44:42.386Z,3.20
2019-06-10T11:47:13.166Z,3.00
2019-06-10T11:49:43.586Z,3.40
2019-06-10T11:52:13.853Z,2.60
2019-06-10T11:54:55.867Z,3.00
2019-06-10T11:57:16.142Z,2.00
2019-06-10T11:59:46.508Z,4.00
2019-06-10T12:02:16.630Z,3.80
2019-06-10T12:04:46.737Z,3.40
2019-06-10T12:07:16.834Z,1.60
2019-06-10T12:09:46.962Z,3.00
2019-06-10T12:12:17.370Z,2.00
2019-06-10T12:14:47.433Z,3.20
2019-06-10T12:17:35.186Z,3.00
2019-06-10T12:19:49.801Z,3.40
2019-06-10T12:22:22.558Z,2.00
2019-06-10T12:25:14.913Z,2.00
2019-06-10T12:27:23.626Z,3.60
2019-06-10T12:29:56.300Z,3.00
2019-06-10T12:32:25.600Z,3.80
2019-06-10T12:34:57.930Z,3.00
2019-06-10T12:37:29.741Z,2.20
2019-06-10T12:40:02.164Z,2.40
2019-06-10T12:42:32.828Z,4.00
2019-06-10T12:45:06.054Z,2.60
2019-06-10T12:47:35.212Z,2.20
2019-06-10T12:50:07.318Z,2.20
2019-06-10T12:52:37.491Z,2.00
2019-06-10T12:55:08.700Z,3.00
2019-06-10T12:57:38.765Z,2.00
2019-06-10T13:00:20.427Z,3.00
2019-06-10T13:02:43.467Z,3.00
2019-06-10T13:05:14.331Z,0.00
2019-06-10T13:07:46.341Z,3.00
2019-06-10T13:10:35.612Z,2.00
2019-06-10T13:13:08.722Z,2.80
2019-06-10T13:15:37.951Z,3.00
2019-06-10T13:18:13.631Z,2.80
2019-06-10T13:20:43.061Z,2.80
2019-06-10T13:23:20.245Z,0.40
2019-06-10T13:25:54.503Z,3.20
2019-06-10T13:28:15.700Z,2.00
2019-06-10T13:30:45.742Z,0.40
2019-06-10T13:33:15.849Z,1.80
2019-06-10T13:35:45.960Z,2.20
2019-06-10T13:38:16.513Z,3.00
2019-06-10T13:40:46.551Z,3.20
2019-06-10T13:43:16.638Z,3.00
2019-06-10T13:45:46.690Z,3.40
2019-06-10T13:48:17.072Z,3.00
2019-06-10T13:50:47.273Z,2.40
2019-06-10T13:53:17.388Z,2.80
2019-06-10T13:55:47.559Z,2.40
2019-06-10T13:58:17.649Z,3.00
2019-06-10T14:00:47.677Z,2.00
2019-06-10T14:03:18.062Z,3.00
2019-06-10T14:05:48.118Z,2.20
2019-06-10T14:08:18.140Z,4.00
2019-06-10T14:10:48.144Z,3.20
2019-06-10T14:13:18.200Z,3.60
2019-06-10T14:15:48.242Z,2.40
2019-06-10T14:18:18.325Z,2.20
2019-06-10T14:20:48.356Z,2.00
2019-06-10T14:23:18.725Z,3.60
2019-06-10T14:25:48.864Z,2.60
2019-06-10T14:28:37.758Z,3.60
2019-06-10T14:30:53.392Z,2.00
2019-06-10T14:33:23.548Z,2.80
2019-06-10T14:35:53.674Z,3.00
2019-06-10T14:38:23.810Z,3.00
2019-06-10T14:40:54.152Z,2.00
2019-06-10T14:43:24.474Z,3.20
2019-06-10T14:45:54.718Z,3.00
2019-06-10T14:48:24.772Z,3.00
2019-06-10T14:50:55.211Z,2.80
2019-06-10T14:53:25.256Z,3.60
2019-06-10T14:55:55.327Z,2.00
2019-06-10T14:58:25.426Z,3.20
2019-06-10T15:00:55.638Z,3.20
2019-06-10T15:03:25.738Z,3.00
2019-06-10T15:05:56.934Z,3.20
2019-06-10T15:08:27.035Z,3.80
2019-06-10T15:10:57.078Z,2.00
2019-06-10T15:13:27.142Z,4.00
2019-06-10T15:15:57.159Z,2.00
2019-06-10T15:18:27.249Z,2.60
2019-06-10T15:21:02.523Z,3.20
2019-06-10T15:23:32.603Z,2.80
2019-06-10T15:26:03.027Z,3.00
2019-06-10T15:28:33.173Z,3.20
2019-06-10T15:31:03.214Z,2.40
2019-06-10T15:33:33.256Z,3.00
2019-06-10T15:36:03.286Z,4.00
2019-06-10T15:38:33.354Z,2.80
2019-06-10T15:41:04.495Z,3.60
2019-06-10T15:43:34.568Z,3.00
2019-06-10T15:46:04.698Z,0.00
2019-06-10T15:48:34.801Z,2.60
2019-06-10T15:51:04.798Z,3.00
2019-06-10T15:53:34.892Z,4.00
2019-06-10T15:56:14.560Z,3.80
2019-06-10T15:58:36.791Z,3.40
2019-06-10T16:01:07.984Z,3.00
2019-06-10T16:03:38.002Z,2.00
2019-06-10T16:06:08.105Z,3.80
2019-06-10T16:08:38.127Z,3.40
2019-06-10T16:11:08.231Z,3.00
2019-06-10T16:13:38.273Z,3.20
2019-06-10T16:16:08.371Z,3.20
2019-06-10T16:18:38.392Z,2.40
2019-06-10T16:21:08.457Z,2.40
2019-06-10T16:23:38.506Z,4.00
2019-06-10T16:26:08.569Z,3.00
2019-06-10T16:28:38.859Z,4.00
2019-06-10T16:31:09.115Z,3.00
2019-06-10T16:33:39.136Z,3.00
2019-06-10T16:36:09.208Z,4.40
2019-06-10T16:38:39.254Z,3.00
2019-06-10T16:41:09.411Z,3.80
2019-06-10T16:43:39.453Z,2.80
2019-06-10T16:46:09.566Z,3.40
2019-06-10T16:48:41.332Z,2.40
2019-06-10T16:51:13.308Z,3.40
2019-06-10T16:53:43.580Z,4.00
2019-06-10T16:56:13.641Z,5.40
2019-06-10T16:58:44.674Z,2.40
2019-06-10T17:01:14.764Z,3.40
2019-06-10T17:03:44.780Z,2.80
2019-06-10T17:06:14.873Z,3.00
2019-06-10T17:08:44.929Z,3.80
2019-06-10T17:11:15.079Z,5.00
2019-06-10T17:13:45.024Z,9.20
2019-06-10T17:16:15.131Z,6.40
2019-06-10T17:18:45.148Z,7.00
2019-06-10T17:21:15.248Z,5.60
2019-06-10T17:23:45.263Z,4.00
2019-06-10T17:26:15.343Z,5.00
2019-06-10T17:28:45.412Z,5.00
2019-06-10T17:31:15.452Z,4.60
2019-06-10T17:33:45.455Z,4.00
2019-06-10T17:36:15.547Z,4.00
2019-06-10T17:38:45.588Z,2.80
2019-06-10T17:41:15.625Z,4.40
2019-06-10T17:43:45.582Z,8.20
2019-06-10T17:46:18.525Z,10.20
2019-06-10T17:48:48.524Z,10.20
2019-06-10T17:51:18.596Z,10.40
2019-06-10T17:53:48.575Z,9.20
2019-06-10T17:56:18.690Z,6.20
2019-06-10T17:58:54.933Z,7.20
2019-06-10T18:01:22.534Z,5.40
2019-06-10T18:03:53.018Z,4.40
2019-06-10T18:06:24.554Z,5.00
2019-06-10T18:08:57.734Z,6.40
2019-06-10T18:11:28.050Z,6.80
2019-06-10T18:13:58.225Z,5.00
2019-06-10T18:16:28.322Z,5.80
2019-06-10T18:18:58.345Z,6.60
2019-06-10T18:21:28.449Z,6.60
2019-06-10T18:24:07.494Z,5.00
2019-06-10T18:26:30.976Z,7.00
2019-06-10T18:29:06.039Z,6.00
2019-06-10T18:31:35.271Z,5.00
2019-06-10T18:34:05.437Z,6.00
2019-06-10T18:36:37.362Z,5.80
2019-06-10T18:39:08.276Z,5.80
2019-06-10T18:41:40.211Z,6.20
2019-06-10T18:44:19.931Z,6.20
2019-06-10T18:46:43.376Z,7.00
2019-06-10T18:49:14.544Z,7.80
2019-06-10T18:51:44.614Z,8.40
2019-06-10T18:54:14.723Z,7.20
2019-06-10T18:56:44.742Z,5.40
2019-06-10T18:59:20.773Z,7.20
2019-06-10T19:01:49.222Z,6.40
2019-06-10T19:04:19.285Z,5.00
2019-06-10T19:06:49.358Z,8.20
2019-06-10T19:09:19.475Z,6.20
2019-06-10T19:11:49.519Z,6.40
2019-06-10T19:14:20.844Z,6.60
2019-06-10T19:16:52.424Z,5.60
2019-06-10T19:19:23.034Z,7.60
2019-06-10T19:22:02.806Z,8.20
2019-06-10T19:24:24.842Z,7.60
2019-06-10T19:26:58.369Z,6.20
2019-06-10T19:29:35.991Z,7.60
2019-06-10T19:31:59.158Z,6.60
2019-06-10T19:34:29.158Z,8.00
2019-06-10T19:36:59.193Z,6.00
2019-06-10T19:39:29.634Z,4.60
2019-06-10T19:42:02.602Z,8.20
2019-06-10T19:44:32.774Z,6.20
2019-06-10T19:47:03.005Z,7.80
2019-06-10T19:49:34.171Z,7.00
2019-06-10T19:52:04.908Z,9.00
2019-06-10T19:54:35.004Z,7.80
2019-06-10T19:57:05.046Z,7.80
2019-06-10T19:59:51.360Z,8.00
2019-06-10T20:02:08.849Z,8.60
2019-06-10T20:04:39.792Z,9.00
2019-06-10T20:07:12.652Z,9.80
2019-06-10T20:09:45.100Z,8.20
2019-06-10T20:12:14.010Z,7.60
2019-06-10T20:14:45.166Z,5.40
2019-06-10T20:17:15.865Z,9.20
2019-06-10T20:19:46.048Z,8.60
2019-06-10T20:22:16.631Z,8.00
2019-06-10T20:24:46.898Z,8.80
2019-06-10T20:27:17.219Z,6.80
2019-06-10T20:29:59.715Z,7.60
2019-06-10T20:32:18.866Z,8.80
2019-06-10T20:34:49.698Z,6.20
2019-06-10T20:37:22.464Z,8.60
2019-06-10T20:39:53.870Z,8.60
2019-06-10T20:42:24.082Z,8.40
2019-06-10T20:44:54.172Z,8.00
2019-06-10T20:47:24.169Z,7.00
2019-06-10T20:49:56.155Z,8.20
2019-06-10T20:52:25.923Z,6.40
2019-06-10T20:54:55.981Z,7.20
2019-06-10T20:57:26.000Z,7.00
2019-06-10T20:59:56.102Z,7.20
2019-06-10T21:03:37.105Z,7.40
2019-06-10T21:06:07.391Z,5.80
2019-06-10T21:08:39.407Z,8.60
2019-06-10T21:11:09.474Z,9.40
2019-06-10T21:13:40.035Z,9.40
2019-06-10T21:16:12.496Z,7.40
2019-06-10T21:18:45.348Z,10.80
2019-06-10T21:21:13.502Z,8.80
2019-06-10T21:23:44.980Z,8.60
2019-06-10T21:26:15.165Z,8.20
2019-06-10T21:28:48.538Z,8.20
2019-06-10T21:31:16.906Z,6.80
2019-06-10T21:33:49.065Z,7.00
2019-06-10T21:36:18.561Z,9.80
2019-06-10T21:38:49.717Z,4.40
2019-06-10T21:41:22.591Z,7.00
2019-06-10T21:43:58.665Z,6.60
2019-06-10T21:46:23.617Z,6.20
2019-06-10T21:48:55.993Z,9.20
2019-06-10T21:51:25.354Z,7.00
2019-06-10T21:53:55.466Z,9.00
2019-06-10T21:56:25.907Z,7.80
2019-06-10T21:58:55.971Z,7.20
2019-06-10T22:01:26.008Z,5.20
2019-06-10T22:04:00.831Z,7.00
2019-06-10T22:06:27.759Z,7.80
2019-06-10T22:08:57.787Z,8.00
2019-06-10T22:11:28.752Z,9.40
2019-06-10T22:13:58.716Z,10.40
2019-06-10T22:16:28.849Z,10.80
2019-06-10T22:18:58.815Z,10.40
2019-06-10T22:21:28.892Z,8.60
2019-06-10T22:23:58.836Z,10.40
2019-06-10T22:26:28.831Z,8.40
2019-06-10T22:28:58.791Z,8.60
2019-06-10T22:31:28.857Z,7.80
2019-06-10T22:33:58.887Z,7.60
2019-06-10T22:36:29.174Z,7.00
2019-06-10T22:38:59.526Z,10.40
2019-06-10T22:41:29.696Z,6.80
2019-06-10T22:43:59.872Z,7.80
2019-06-10T22:46:32.037Z,7.80
2019-06-10T22:49:03.055Z,7.20
2019-06-10T22:51:33.355Z,7.80
2019-06-10T22:54:03.790Z,9.20
2019-06-10T22:56:33.929Z,8.00
2019-06-10T22:59:03.881Z,10.60
2019-06-10T23:01:38.188Z,10.00
2019-06-10T23:04:05.714Z,7.60
2019-06-10T23:06:35.774Z,6.80
2019-06-10T23:09:06.998Z,8.20
2019-06-10T23:11:37.037Z,7.20
2019-06-10T23:14:07.099Z,5.80
2019-06-10T23:16:37.221Z,7.20
2019-06-10T23:19:07.258Z,4.40
2019-06-10T23:21:37.323Z,6.40
2019-06-10T23:24:08.355Z,6.40
2019-06-10T23:26:38.438Z,4.60
2019-06-10T23:29:08.464Z,5.60
2019-06-10T23:31:51.503Z,6.40
2019-06-10T23:34:11.651Z,5.00
2019-06-10T23:36:43.214Z,5.80
2019-06-10T23:39:13.393Z,5.60
2019-06-10T23:41:43.531Z,2.80
2019-06-10T23:44:13.766Z,5.00
2019-06-10T23:46:43.844Z,2.40
2019-06-10T23:49:13.925Z,3.80
2019-06-10T23:51:44.079Z,4.20
2019-06-10T23:54:14.102Z,5.00
2019-06-10T23:56:44.194Z,5.60
2019-06-10T23:59:14.198Z,2.80
